createdAt,value
2022-10-17T00:02:27.301Z,5.20
2022-10-17T00:04:55.605Z,6.97
2022-10-17T00:07:23.838Z,4.60
2022-10-17T00:09:52.165Z,5.95
2022-10-17T00:12:20.636Z,8.35
2022-10-17T00:14:50.389Z,12.00
2022-10-17T00:17:18.940Z,13.20
2022-10-17T00:19:47.343Z,6.00
2022-10-17T00:22:16.004Z,4.80
2022-10-17T00:24:44.232Z,5.53
2022-10-17T00:27:13.059Z,7.05
2022-10-17T00:29:41.277Z,7.22
2022-10-17T00:32:10.873Z,6.85
2022-10-17T00:34:39.193Z,8.85
2022-10-17T00:37:07.438Z,8.52
2022-10-17T00:39:35.812Z,10.30
2022-10-17T00:42:04.177Z,5.65
2022-10-17T00:45:02.971Z,9.45
2022-10-17T00:47:33.943Z,7.22
2022-10-17T00:52:32.295Z,6.40
2022-10-17T00:55:05.317Z,7.35
2022-10-17T00:57:34.310Z,6.35
2022-10-17T01:00:06.988Z,6.80
2022-10-17T01:02:37.018Z,4.75
2022-10-17T01:05:06.469Z,10.02
2022-10-17T01:07:37.235Z,10.40
2022-10-17T01:10:07.268Z,7.20
2022-10-17T01:12:46.487Z,5.13
2022-10-17T01:15:22.251Z,7.60
2022-10-17T01:18:00.873Z,6.93
2022-10-17T01:21:00.788Z,6.72
2022-10-17T01:23:44.932Z,10.05
2022-10-17T01:26:23.360Z,16.95
2022-10-17T01:29:21.298Z,12.82
2022-10-17T01:31:57.291Z,13.98
2022-10-17T01:34:36.277Z,7.78
2022-10-17T01:37:08.075Z,8.25
2022-10-17T01:39:45.641Z,5.75
2022-10-17T01:42:21.190Z,6.20
2022-10-17T01:44:56.822Z,13.30
2022-10-17T01:47:29.809Z,14.85
2022-10-17T01:50:06.983Z,11.43
2022-10-17T01:52:41.972Z,6.65
2022-10-17T01:55:14.242Z,5.18
2022-10-17T01:57:47.433Z,7.88
2022-10-17T02:00:20.186Z,7.77
2022-10-17T02:02:54.446Z,10.98
2022-10-17T02:05:29.365Z,13.52
2022-10-17T02:07:57.615Z,8.52
2022-10-17T02:10:34.834Z,7.32
2022-10-17T02:13:11.256Z,6.60
2022-10-17T02:15:58.980Z,7.22
2022-10-17T02:18:44.149Z,5.63
2022-10-17T02:21:20.462Z,5.53
2022-10-17T02:23:59.378Z,8.95
2022-10-17T02:26:34.068Z,6.78
2022-10-17T02:29:08.647Z,9.07
2022-10-17T02:31:41.486Z,6.68
2022-10-17T02:34:18.145Z,6.93
2022-10-17T02:36:50.306Z,7.90
2022-10-17T02:39:20.802Z,6.68
2022-10-17T02:41:50.812Z,6.38
2022-10-17T02:44:19.600Z,7.53
2022-10-17T02:46:56.219Z,5.72
2022-10-17T02:49:30.543Z,8.93
2022-10-17T02:52:06.203Z,9.88
2022-10-17T02:54:39.345Z,7.45
2022-10-17T02:57:12.117Z,4.50
2022-10-17T02:59:42.823Z,8.60
2022-10-17T03:02:11.138Z,7.38
2022-10-17T03:04:44.636Z,4.85
2022-10-17T03:07:12.872Z,10.15
2022-10-17T03:09:41.197Z,6.75
2022-10-17T03:12:10.918Z,9.00
2022-10-17T03:14:39.963Z,11.60
2022-10-17T03:17:08.198Z,8.30
2022-10-17T03:19:36.481Z,14.52
2022-10-17T03:22:06.343Z,5.95
2022-10-17T03:24:34.728Z,8.10
2022-10-17T03:27:03.177Z,6.38
2022-10-17T03:29:31.710Z,9.43
2022-10-17T03:32:00.292Z,4.13
2022-10-17T03:34:28.520Z,4.63
2022-10-17T03:36:56.643Z,7.55
2022-10-17T03:39:26.460Z,8.00
2022-10-17T03:41:54.551Z,6.35
2022-10-17T03:44:22.867Z,5.32
2022-10-17T03:46:51.098Z,4.50
2022-10-17T03:49:19.276Z,7.75
2022-10-17T03:51:47.704Z,4.70
2022-10-17T03:54:16.097Z,7.95
2022-10-17T03:56:47.232Z,9.43
2022-10-17T03:59:16.439Z,9.43
2022-10-17T04:01:45.058Z,7.50
2022-10-17T04:04:13.519Z,7.95
2022-10-17T04:06:41.862Z,6.95
2022-10-17T04:09:12.507Z,6.82
2022-10-17T04:11:40.886Z,11.88
2022-10-17T04:14:11.517Z,6.30
2022-10-17T04:16:41.126Z,10.88
2022-10-17T04:19:10.137Z,9.40
2022-10-17T04:21:38.346Z,7.80
2022-10-17T04:24:07.190Z,8.68
2022-10-17T04:26:35.618Z,7.40
2022-10-17T04:29:04.580Z,8.32
2022-10-17T04:31:34.336Z,7.60
2022-10-17T04:34:02.985Z,8.55
2022-10-17T04:36:31.325Z,5.45
2022-10-17T04:39:00.008Z,8.93
2022-10-17T04:41:28.492Z,5.65
2022-10-17T04:43:56.973Z,6.90
2022-10-17T04:46:25.942Z,9.70
2022-10-17T04:48:56.030Z,8.10
2022-10-17T04:51:26.603Z,5.63
2022-10-17T04:53:57.623Z,5.07
2022-10-17T04:56:27.537Z,7.32
2022-10-17T04:58:56.310Z,5.72
2022-10-17T05:01:25.957Z,7.65
2022-10-17T05:03:56.483Z,10.02
2022-10-17T05:06:28.551Z,3.50
2022-10-17T05:08:58.415Z,3.85
2022-10-17T05:11:29.929Z,2.90
2022-10-17T05:14:00.231Z,6.35
2022-10-17T05:16:30.276Z,3.90
2022-10-17T05:19:01.257Z,3.58
2022-10-17T05:24:00.479Z,3.25
2022-10-17T05:26:29.645Z,4.28
2022-10-17T05:28:59.478Z,3.60
2022-10-17T05:31:28.818Z,4.93
2022-10-17T05:33:57.351Z,2.60
2022-10-17T05:36:27.225Z,2.17
2022-10-17T05:38:56.280Z,2.47
2022-10-17T05:41:25.066Z,1.75
2022-10-17T05:43:53.532Z,6.03
2022-10-17T05:46:22.630Z,2.97
2022-10-17T05:48:51.269Z,3.05
2022-10-17T05:51:19.860Z,4.57
2022-10-17T05:53:50.628Z,3.60
2022-10-17T05:56:20.853Z,3.53
2022-10-17T05:58:51.635Z,2.63
2022-10-17T06:01:22.093Z,6.15
2022-10-17T06:03:50.517Z,4.25
2022-10-17T06:06:20.425Z,7.70
2022-10-17T06:08:51.095Z,4.50
2022-10-17T06:11:19.865Z,4.25
2022-10-17T06:13:48.779Z,4.90
2022-10-17T06:16:17.338Z,6.03
2022-10-17T06:18:46.426Z,5.80
2022-10-17T06:21:19.839Z,4.03
2022-10-17T06:23:49.868Z,2.47
2022-10-17T06:26:18.628Z,2.95
2022-10-17T06:28:47.959Z,13.80
2022-10-17T06:31:18.314Z,2.92
2022-10-17T06:33:46.754Z,4.65
2022-10-17T06:36:17.044Z,6.50
2022-10-17T06:38:45.567Z,5.18
2022-10-17T06:41:19.439Z,4.85
2022-10-17T06:43:48.642Z,2.63
2022-10-17T06:46:18.959Z,6.05
2022-10-17T06:48:47.644Z,3.35
2022-10-17T06:51:16.955Z,3.38
2022-10-17T06:53:45.422Z,2.72
2022-10-17T06:56:15.529Z,2.30
2022-10-17T06:58:43.585Z,2.92
2022-10-17T07:01:14.290Z,5.53
2022-10-17T07:03:44.327Z,3.50
2022-10-17T07:06:12.970Z,4.45
2022-10-17T07:08:45.290Z,2.95
2022-10-17T07:11:17.368Z,3.42
2022-10-17T07:13:46.678Z,3.15
2022-10-17T07:16:16.018Z,6.57
2022-10-17T07:18:44.555Z,3.03
2022-10-17T07:21:13.243Z,4.10
2022-10-17T07:23:42.117Z,2.75
2022-10-17T07:26:12.793Z,3.13
2022-10-17T07:28:45.626Z,4.75
2022-10-17T07:31:16.242Z,4.63
2022-10-17T07:36:14.716Z,3.17
2022-10-17T07:38:43.793Z,2.30
2022-10-17T07:41:17.859Z,2.17
2022-10-17T07:43:50.934Z,2.50
2022-10-17T07:46:19.511Z,7.43
2022-10-17T07:48:48.287Z,2.78
2022-10-17T07:51:17.944Z,2.72
2022-10-17T07:53:48.819Z,2.63
2022-10-17T07:56:18.773Z,3.83
2022-10-17T07:58:48.504Z,4.22
2022-10-17T08:01:19.642Z,2.53
2022-10-17T08:03:49.693Z,2.10
2022-10-17T08:06:18.696Z,3.40
2022-10-17T08:08:47.946Z,3.70
2022-10-17T08:11:16.641Z,2.70
2022-10-17T08:13:48.381Z,3.75
2022-10-17T08:16:18.632Z,3.63
2022-10-17T08:18:47.468Z,2.42
2022-10-17T08:21:16.051Z,4.00
2022-10-17T08:23:44.474Z,3.97
2022-10-17T08:26:16.909Z,3.00
2022-10-17T08:28:45.683Z,3.00
2022-10-17T08:31:18.959Z,3.47
2022-10-17T08:33:50.151Z,4.50
2022-10-17T08:36:21.191Z,3.22
2022-10-17T08:38:52.772Z,2.78
2022-10-17T08:41:42.219Z,3.03
2022-10-17T08:44:19.490Z,2.20
2022-10-17T08:46:53.529Z,3.08
2022-10-17T08:52:04.215Z,2.38
2022-10-17T08:54:42.117Z,3.30
2022-10-17T08:57:15.581Z,1.52
2022-10-17T08:59:45.994Z,1.92
2022-10-17T09:02:34.578Z,2.30
2022-10-17T09:05:27.284Z,2.33
2022-10-17T09:08:13.663Z,2.15
2022-10-17T09:10:53.196Z,2.45
2022-10-17T09:13:30.922Z,2.38
2022-10-17T09:16:21.225Z,2.58
2022-10-17T09:19:04.595Z,5.53
2022-10-17T09:21:43.829Z,2.47
2022-10-17T09:24:17.949Z,2.53
2022-10-17T09:26:47.390Z,3.58
2022-10-17T09:29:23.123Z,4.45
2022-10-17T09:31:59.878Z,2.33
2022-10-17T09:34:31.111Z,3.45
2022-10-17T09:37:02.223Z,1.75
2022-10-17T09:39:33.269Z,2.75
2022-10-17T09:42:03.373Z,2.95
2022-10-17T09:44:34.665Z,2.40
2022-10-17T09:47:22.009Z,4.15
2022-10-17T09:49:51.330Z,2.83
2022-10-17T09:52:23.868Z,1.73
2022-10-17T09:54:55.318Z,3.03
2022-10-17T09:57:27.646Z,2.42
2022-10-17T10:02:47.555Z,1.60
2022-10-17T10:05:20.090Z,1.70
2022-10-17T10:08:05.746Z,3.63
2022-10-17T10:10:34.970Z,4.20
2022-10-17T10:13:07.142Z,3.00
2022-10-17T10:15:41.498Z,6.78
2022-10-17T10:21:12.736Z,2.88
2022-10-17T10:23:44.884Z,2.63
2022-10-17T10:26:25.104Z,3.03
2022-10-17T10:29:00.387Z,3.90
2022-10-17T10:31:31.772Z,3.17
2022-10-17T10:34:04.534Z,2.60
2022-10-17T10:36:58.498Z,2.63
2022-10-17T10:39:44.474Z,2.58
2022-10-17T10:42:24.411Z,4.38
2022-10-17T10:44:55.766Z,2.47
2022-10-17T10:47:28.098Z,4.00
2022-10-17T10:50:17.517Z,2.05
2022-10-17T10:52:52.440Z,3.00
2022-10-17T10:55:27.882Z,2.17
2022-10-17T10:58:02.663Z,2.42
2022-10-17T11:00:35.548Z,2.30
2022-10-17T11:03:16.010Z,3.00
2022-10-17T11:05:47.769Z,1.65
2022-10-17T11:08:24.999Z,2.08
2022-10-17T11:11:18.385Z,4.05
2022-10-17T11:13:54.010Z,4.40
2022-10-17T11:16:30.738Z,1.90
2022-10-17T11:19:06.208Z,1.50
2022-10-17T11:21:43.202Z,1.88
2022-10-17T11:24:18.048Z,1.25
2022-10-17T11:26:55.318Z,2.22
2022-10-17T11:29:29.175Z,3.15
2022-10-17T11:34:29.103Z,2.50
2022-10-17T11:37:01.235Z,1.70
2022-10-17T11:39:36.785Z,1.92
2022-10-17T11:42:11.753Z,6.38
2022-10-17T11:44:41.596Z,4.65
2022-10-17T11:47:22.501Z,2.70
2022-10-17T11:49:55.943Z,1.98
2022-10-17T11:52:55.475Z,1.77
2022-10-17T11:55:25.926Z,1.40
2022-10-17T11:58:16.503Z,2.65
2022-10-17T12:00:55.802Z,2.33
2022-10-17T12:03:47.109Z,1.67
2022-10-17T12:06:25.848Z,1.52
2022-10-17T12:09:04.408Z,2.35
2022-10-17T12:11:46.554Z,1.50
2022-10-17T12:14:42.476Z,1.98
2022-10-17T12:17:30.574Z,2.05
2022-10-17T12:20:27.991Z,1.90
2022-10-17T12:22:57.842Z,4.45
2022-10-17T12:25:30.360Z,2.03
2022-10-17T12:28:17.639Z,2.30
2022-10-17T12:30:58.486Z,4.85
2022-10-17T12:33:37.317Z,2.97
2022-10-17T12:36:42.552Z,2.22
2022-10-17T12:39:50.954Z,2.03
2022-10-17T12:42:51.632Z,2.10
2022-10-17T12:45:49.521Z,4.20
2022-10-17T12:48:55.737Z,1.73
2022-10-17T12:51:41.211Z,1.50
2022-10-17T12:54:15.210Z,3.47
2022-10-17T12:56:46.073Z,2.90
2022-10-17T12:59:17.960Z,2.72
2022-10-17T13:01:49.743Z,3.00
2022-10-17T13:04:19.474Z,2.80
2022-10-17T13:06:54.169Z,8.07
2022-10-17T13:09:30.829Z,2.28
2022-10-17T13:12:03.101Z,2.22
2022-10-17T13:14:33.331Z,1.52
2022-10-17T13:17:03.739Z,2.67
2022-10-17T13:19:40.747Z,6.97
2022-10-17T13:22:18.330Z,2.88
2022-10-17T13:24:47.536Z,4.72
2022-10-17T13:27:30.547Z,3.17
2022-10-17T13:30:02.608Z,2.40
2022-10-17T13:32:38.710Z,5.60
2022-10-17T13:35:09.835Z,3.72
2022-10-17T13:37:44.253Z,2.80
2022-10-17T13:40:44.234Z,2.08
2022-10-17T13:45:49.826Z,1.65
2022-10-17T13:48:23.008Z,2.65
2022-10-17T13:50:54.298Z,4.00
2022-10-17T13:53:27.946Z,3.33
2022-10-17T13:56:27.840Z,1.35
2022-10-17T13:58:51.849Z,1.80
2022-10-17T14:01:21.880Z,2.75
2022-10-17T14:04:02.230Z,1.80
2022-10-17T14:06:42.208Z,2.03
2022-10-17T14:09:22.837Z,1.52
2022-10-17T14:12:01.226Z,3.10
2022-10-17T14:14:32.136Z,2.15
2022-10-17T14:17:18.433Z,2.15
2022-10-17T14:19:55.443Z,2.60
2022-10-17T14:22:37.130Z,2.30
2022-10-17T14:25:07.915Z,1.88
2022-10-17T14:27:39.549Z,2.63
2022-10-17T14:30:55.334Z,2.13
2022-10-17T14:33:26.790Z,2.53
2022-10-17T14:35:57.223Z,3.35
2022-10-17T14:38:27.827Z,3.47
2022-10-17T14:41:15.648Z,2.13
2022-10-17T14:43:55.844Z,1.33
2022-10-17T14:46:24.882Z,1.92
2022-10-17T14:48:59.734Z,2.90
2022-10-17T14:51:44.706Z,1.73
2022-10-17T14:54:26.386Z,5.72
2022-10-17T14:56:59.592Z,3.05
2022-10-17T14:59:52.682Z,3.03
2022-10-17T15:02:17.264Z,2.97
2022-10-17T15:04:45.640Z,5.65
2022-10-17T15:07:18.979Z,5.22
2022-10-17T15:09:50.589Z,5.32
2022-10-17T15:12:24.299Z,4.00
2022-10-17T15:14:54.004Z,3.60
2022-10-17T15:17:25.454Z,4.53
2022-10-17T15:19:54.114Z,4.10
2022-10-17T15:22:22.534Z,6.70
2022-10-17T15:24:51.716Z,3.50
2022-10-17T15:27:24.603Z,3.10
2022-10-17T15:29:53.289Z,2.58
2022-10-17T15:32:21.766Z,4.90
2022-10-17T15:34:50.027Z,3.20
2022-10-17T15:37:22.663Z,3.85
2022-10-17T15:39:53.665Z,2.70
2022-10-17T15:42:27.914Z,2.75
2022-10-17T15:44:56.396Z,3.42
2022-10-17T15:47:28.729Z,3.95
2022-10-17T15:49:57.880Z,4.47
2022-10-17T15:52:26.850Z,2.75
2022-10-17T15:54:57.420Z,5.82
2022-10-17T15:57:32.003Z,18.90
2022-10-17T16:00:01.728Z,15.63
2022-10-17T16:02:30.329Z,20.30
2022-10-17T16:04:58.662Z,14.23
2022-10-17T16:07:28.299Z,8.00
2022-10-17T16:09:56.622Z,11.02
2022-10-17T16:12:31.418Z,7.80
2022-10-17T16:15:00.102Z,5.43
2022-10-17T16:17:28.850Z,8.50
2022-10-17T16:19:58.190Z,5.22
2022-10-17T16:22:32.645Z,4.38
2022-10-17T16:25:08.093Z,4.32
2022-10-17T16:27:39.137Z,7.30
2022-10-17T16:30:09.580Z,4.20
2022-10-17T16:32:38.278Z,3.67
2022-10-17T16:35:07.852Z,5.60
2022-10-17T16:37:36.769Z,4.38
2022-10-17T16:40:05.891Z,5.60
2022-10-17T16:42:34.576Z,7.20
2022-10-17T16:45:04.440Z,5.30
2022-10-17T16:47:32.601Z,4.38
2022-10-17T16:50:00.952Z,6.65
2022-10-17T16:52:30.183Z,8.32
2022-10-17T16:54:58.906Z,8.75
2022-10-17T16:57:27.428Z,10.15
2022-10-17T16:59:55.834Z,11.73
2022-10-17T17:02:25.942Z,6.22
2022-10-17T17:04:54.201Z,7.00
2022-10-17T17:07:24.219Z,7.10
2022-10-17T17:09:54.007Z,5.40
2022-10-17T17:12:22.408Z,6.85
2022-10-17T17:14:51.132Z,7.22
2022-10-17T17:17:30.594Z,6.38
2022-10-17T17:20:10.363Z,9.05
2022-10-17T17:22:39.487Z,8.30
2022-10-17T17:25:08.892Z,8.63
2022-10-17T17:27:38.360Z,9.00
2022-10-17T17:30:07.883Z,11.40
2022-10-17T17:32:38.209Z,8.88
2022-10-17T17:35:08.335Z,10.73
2022-10-17T17:37:38.153Z,8.77
2022-10-17T17:40:08.731Z,15.60
2022-10-17T17:42:37.315Z,11.50
2022-10-17T17:45:07.278Z,10.48
2022-10-17T17:47:35.507Z,9.52
2022-10-17T17:50:03.786Z,9.27
2022-10-17T17:52:32.572Z,8.57
2022-10-17T17:55:02.553Z,11.77
2022-10-17T17:57:32.293Z,6.68
2022-10-17T18:00:00.726Z,5.40
2022-10-17T18:02:29.328Z,6.70
2022-10-17T18:04:58.180Z,6.35
2022-10-17T18:07:27.619Z,10.00
2022-10-17T18:09:57.487Z,3.92
2022-10-17T18:12:27.985Z,8.02
2022-10-17T18:14:56.394Z,10.63
2022-10-17T18:17:25.201Z,7.45
2022-10-17T18:19:53.592Z,6.43
2022-10-17T18:22:23.080Z,10.07
2022-10-17T18:24:51.674Z,8.88
2022-10-17T18:27:19.985Z,7.88
2022-10-17T18:29:51.153Z,10.23
2022-10-17T18:32:19.597Z,10.63
2022-10-17T18:34:47.820Z,6.68
2022-10-17T18:37:16.455Z,11.68
2022-10-17T18:39:45.241Z,9.15
2022-10-17T18:42:13.954Z,8.40
2022-10-17T18:44:42.322Z,8.38
2022-10-17T18:47:12.394Z,6.57
2022-10-17T18:49:43.213Z,7.20
2022-10-17T18:52:11.692Z,8.98
2022-10-17T18:54:39.968Z,9.55
2022-10-17T18:57:08.707Z,7.68
2022-10-17T18:59:39.685Z,5.85
2022-10-17T19:02:10.157Z,6.25
2022-10-17T19:04:40.434Z,6.53
2022-10-17T19:07:10.244Z,5.18
2022-10-17T19:09:39.479Z,7.65
2022-10-17T19:12:07.889Z,6.53
2022-10-17T19:14:38.671Z,14.95
2022-10-17T19:17:07.162Z,6.75
2022-10-17T19:19:36.196Z,8.43
2022-10-17T19:22:09.657Z,9.38
2022-10-17T19:24:38.174Z,8.10
2022-10-17T19:27:07.170Z,6.75
2022-10-17T19:29:35.725Z,8.85
2022-10-17T19:32:14.135Z,6.95
2022-10-17T19:34:45.619Z,5.15
2022-10-17T19:37:15.919Z,13.93
2022-10-17T19:39:44.151Z,6.85
2022-10-17T19:42:12.543Z,5.60
2022-10-17T19:44:42.063Z,5.43
2022-10-17T19:47:10.320Z,4.78
2022-10-17T19:49:38.687Z,8.25
2022-10-17T19:52:07.173Z,9.55
2022-10-17T19:54:40.610Z,8.52
2022-10-17T19:57:10.621Z,5.68
2022-10-17T19:59:39.209Z,8.65
2022-10-17T20:02:08.000Z,5.22
2022-10-17T20:04:42.086Z,7.15
2022-10-17T20:07:18.366Z,4.43
2022-10-17T20:09:48.292Z,10.50
2022-10-17T20:12:16.724Z,7.60
2022-10-17T20:14:45.132Z,7.28
2022-10-17T20:17:13.720Z,7.10
2022-10-17T20:19:42.032Z,5.65
2022-10-17T20:22:10.791Z,8.50
2022-10-17T20:24:39.197Z,10.65
2022-10-17T20:27:09.319Z,6.80
2022-10-17T20:29:37.886Z,11.60
2022-10-17T20:32:06.804Z,9.02
2022-10-17T20:34:35.722Z,8.32
2022-10-17T20:37:04.578Z,7.07
2022-10-17T20:39:33.034Z,9.02
2022-10-17T20:42:08.328Z,11.02
2022-10-17T20:44:39.820Z,12.77
2022-10-17T20:47:15.970Z,7.13
2022-10-17T20:49:44.948Z,12.40
2022-10-17T20:52:13.858Z,8.02
2022-10-17T20:54:43.049Z,7.47
2022-10-17T20:57:11.733Z,6.95
2022-10-17T20:59:41.613Z,10.27
2022-10-17T21:02:14.521Z,7.00
2022-10-17T21:04:47.070Z,9.98
2022-10-17T21:07:16.486Z,8.68
2022-10-17T21:09:46.428Z,6.20
2022-10-17T21:12:21.741Z,6.85
2022-10-17T21:15:01.212Z,5.65
2022-10-17T21:17:29.796Z,7.65
2022-10-17T21:19:58.403Z,7.18
2022-10-17T21:22:27.287Z,8.23
2022-10-17T21:24:56.200Z,7.35
2022-10-17T21:27:24.841Z,9.13
2022-10-17T21:29:53.725Z,7.18
2022-10-17T21:32:33.566Z,16.45
2022-10-17T21:35:11.887Z,7.03
2022-10-17T21:37:40.399Z,7.00
2022-10-17T21:40:10.423Z,7.82
2022-10-17T21:42:38.593Z,8.18
2022-10-17T21:45:15.580Z,6.32
2022-10-17T21:48:11.582Z,9.90
2022-10-17T21:50:38.883Z,9.18
2022-10-17T21:53:07.308Z,7.93
2022-10-17T21:55:37.634Z,8.93
2022-10-17T21:58:06.578Z,8.55
2022-10-17T22:00:35.138Z,8.52
2022-10-17T22:03:07.622Z,8.57
2022-10-17T22:05:36.319Z,8.77
2022-10-17T22:08:04.863Z,10.63
2022-10-17T22:10:33.179Z,8.70
2022-10-17T22:13:01.787Z,9.90
2022-10-17T22:15:31.038Z,11.25
2022-10-17T22:17:59.572Z,13.05
2022-10-17T22:20:29.885Z,13.55
2022-10-17T22:22:59.612Z,12.45
2022-10-17T22:25:28.292Z,8.40
2022-10-17T22:27:56.848Z,11.20
2022-10-17T22:30:25.370Z,20.00
2022-10-17T22:32:53.635Z,7.88
2022-10-17T22:35:21.811Z,7.47
2022-10-17T22:37:51.615Z,16.77
2022-10-17T22:40:19.793Z,12.70
2022-10-17T22:42:48.320Z,13.85
2022-10-17T22:45:16.905Z,8.68
2022-10-17T22:47:45.107Z,17.33
2022-10-17T22:50:13.670Z,8.85
2022-10-17T22:52:42.245Z,8.15
2022-10-17T22:55:12.587Z,7.88
2022-10-17T22:57:41.264Z,11.32
2022-10-17T23:00:11.768Z,10.95
2022-10-17T23:02:40.370Z,11.45
2022-10-17T23:05:09.093Z,9.27
2022-10-17T23:07:37.723Z,11.10
2022-10-17T23:10:06.668Z,8.50
2022-10-17T23:12:36.793Z,13.55
2022-10-17T23:15:06.286Z,10.82
2022-10-17T23:17:34.490Z,8.65
2022-10-17T23:20:02.747Z,11.15
2022-10-17T23:22:31.212Z,5.97
2022-10-17T23:24:59.737Z,8.40
2022-10-17T23:27:27.946Z,8.10
2022-10-17T23:29:57.675Z,17.67
2022-10-17T23:32:26.214Z,8.98
2022-10-17T23:34:54.543Z,8.63
2022-10-17T23:37:23.062Z,7.60
2022-10-17T23:39:51.252Z,10.57
2022-10-17T23:42:19.457Z,10.55
2022-10-17T23:44:47.772Z,9.13
2022-10-17T23:47:17.634Z,8.02
2022-10-17T23:49:45.816Z,8.85
2022-10-17T23:52:14.176Z,11.23
2022-10-17T23:57:16.095Z,10.25
2022-10-17T23:59:44.601Z,12.25
